Time;durP1;ratioP1;P1;durP2;ratioP2;P2;SDS_P1;SDS_P2;PMS_P1;PMS_P2;Temp;Humidity;BMP_temperature;BMP_pressure;BME280_temperature;BME280_humidity;BME280_pressure;Samples;Min_cycle;Max_cycle;Signal;HPM_P1;HPM_P2
2023/04/21 00:01:15;;;;;;;;;;;18.30;64.00;;;;;;4933168;29;1902;-73
2023/04/21 00:03:41;;;;;;;;;;;18.20;64.00;;;;;;4946758;29;1324;-73
2023/04/21 00:06:08;;;;;;;;;;;18.30;64.10;;;;;;4932970;29;863;-73
2023/04/21 00:08:36;;;;;;;;;;;18.30;64.10;;;;;;4947264;29;1059;-73
2023/04/21 00:11:03;;;;;;;;;;;18.30;64.10;;;;;;4946933;29;923;-73
2023/04/21 00:13:28;;;;;;;;;;;18.20;64.10;;;;;;4932654;29;1387;-73
2023/04/21 00:15:54;;;;;;;;;;;18.30;64.10;;;;;;4933012;29;873;-73
2023/04/21 00:18:19;;;;;;;;;;;18.20;64.10;;;;;;4933142;29;900;-73
2023/04/21 00:20:45;;;;;;;;;;;18.20;64.10;;;;;;4932820;29;802;-73
2023/04/21 00:23:10;;;;;;;;;;;18.20;64.10;;;;;;4932209;29;1898;-73
2023/04/21 00:25:36;;;;;;;;;;;18.20;64.10;;;;;;4933016;29;877;-73
2023/04/21 00:28:01;;;;;;;;;;;18.20;64.20;;;;;;4932893;29;900;-73
2023/04/21 00:30:27;;;;;;;;;;;18.20;64.20;;;;;;4932955;29;1298;-73
2023/04/21 00:32:52;;;;;;;;;;;18.20;64.20;;;;;;4932782;29;1206;-73
2023/04/21 00:35:18;;;;;;;;;;;18.20;64.20;;;;;;4932672;29;1040;-72
2023/04/21 00:37:43;;;;;;;;;;;18.20;64.20;;;;;;4931655;29;932;-73
2023/04/21 00:40:09;;;;;;;;;;;18.20;64.30;;;;;;4932924;29;904;-73
2023/04/21 00:42:35;;;;;;;;;;;18.20;64.30;;;;;;4932619;29;2104;-73
2023/04/21 00:45:00;;;;;;;;;;;18.20;64.30;;;;;;4932662;29;1414;-72
2023/04/21 00:47:26;;;;;;;;;;;18.20;64.30;;;;;;4933886;29;844;-73
2023/04/21 00:49:52;;;;;;;;;;;18.20;64.30;;;;;;4933997;29;852;-73
2023/04/21 00:52:17;;;;;;;;;;;18.20;64.40;;;;;;4932996;29;837;-73
2023/04/21 00:54:43;;;;;;;;;;;18.20;64.30;;;;;;4947163;29;1272;-73
2023/04/21 00:57:09;;;;;;;;;;;18.20;64.40;;;;;;4932774;29;811;-72
2023/04/21 00:59:35;;;;;;;;;;;18.20;64.40;;;;;;4947357;29;860;-72
2023/04/21 01:02:00;;;;;;;;;;;18.20;64.40;;;;;;4932792;29;1906;-73
2023/04/21 01:04:26;;;;;;;;;;;18.10;64.30;;;;;;4947168;28;1335;-72
2023/04/21 01:06:52;;;;;;;;;;;18.20;64.40;;;;;;4931425;29;911;-73
2023/04/21 01:09:18;;;;;;;;;;;18.20;64.50;;;;;;4947373;29;951;-73
2023/04/21 01:12:02;;;;;;;;;;;18.10;64.40;;;;;;4933288;29;1066;-72
2023/04/21 01:14:28;;;;;;;;;;;18.20;64.40;;;;;;4949311;29;1278;-72
2023/04/21 01:16:53;;;;;;;;;;;18.10;64.40;;;;;;4935888;29;903;-72
2023/04/21 01:19:19;;;;;;;;;;;18.10;64.40;;;;;;4935624;29;1062;-72
2023/04/21 01:21:44;;;;;;;;;;;18.10;64.40;;;;;;4934506;29;1899;-72
2023/04/21 01:24:10;;;;;;;;;;;18.10;64.40;;;;;;4950685;29;1346;-72
2023/04/21 01:26:36;;;;;;;;;;;18.20;64.50;;;;;;4935605;29;887;-72
2023/04/21 01:29:01;;;;;;;;;;;18.10;64.50;;;;;;4935912;29;958;-73
2023/04/21 01:31:27;;;;;;;;;;;18.20;64.50;;;;;;4935507;29;1300;-72
2023/04/21 01:33:52;;;;;;;;;;;18.20;64.60;;;;;;4935784;29;1365;-73
2023/04/21 01:36:18;;;;;;;;;;;18.10;64.50;;;;;;4934298;29;888;-72
2023/04/21 01:38:43;;;;;;;;;;;18.20;64.60;;;;;;4935293;29;947;-73
2023/04/21 01:41:09;;;;;;;;;;;18.20;64.60;;;;;;4934622;29;1895;-72
2023/04/21 01:43:35;;;;;;;;;;;18.10;64.60;;;;;;4949069;29;1271;-71
2023/04/21 01:46:01;;;;;;;;;;;18.10;64.60;;;;;;4935177;29;970;-72
2023/04/21 01:48:27;;;;;;;;;;;18.10;64.60;;;;;;4935180;29;908;-73
2023/04/21 01:50:53;;;;;;;;;;;18.20;64.70;;;;;;4934906;29;832;-72
2023/04/21 01:53:18;;;;;;;;;;;18.10;64.60;;;;;;4934860;29;1698;-75
2023/04/21 01:55:43;;;;;;;;;;;18.10;64.60;;;;;;4935211;29;900;-72
2023/04/21 01:58:09;;;;;;;;;;;18.10;64.60;;;;;;4935160;29;888;-71
2023/04/21 02:00:34;;;;;;;;;;;18.10;64.60;;;;;;4935105;29;844;-72
2023/04/21 02:03:00;;;;;;;;;;;18.10;64.60;;;;;;4949214;29;1910;-73
2023/04/21 02:05:25;;;;;;;;;;;18.10;64.70;;;;;;4934796;29;992;-72
2023/04/21 02:07:51;;;;;;;;;;;18.10;64.70;;;;;;4949829;29;1181;-73
2023/04/21 02:10:16;;;;;;;;;;;18.10;64.70;;;;;;4934952;29;869;-75
2023/04/21 02:12:42;;;;;;;;;;;18.10;64.70;;;;;;4935042;29;1253;-75
2023/04/21 02:15:07;;;;;;;;;;;18.10;64.70;;;;;;4935537;29;877;-75
2023/04/21 02:17:33;;;;;;;;;;;18.10;64.70;;;;;;4935431;29;876;-73
2023/04/21 02:19:58;;;;;;;;;;;18.10;64.80;;;;;;4935477;29;889;-73
2023/04/21 02:22:24;;;;;;;;;;;18.10;64.70;;;;;;4935453;29;1923;-75
2023/04/21 02:24:49;;;;;;;;;;;18.10;64.80;;;;;;4934533;29;1334;-73
2023/04/21 02:27:15;;;;;;;;;;;18.10;64.80;;;;;;4934149;29;827;-73
2023/04/21 02:29:40;;;;;;;;;;;18.10;64.80;;;;;;4935438;29;1365;-73
2023/04/21 02:32:06;;;;;;;;;;;18.10;64.80;;;;;;4935412;29;995;-76
2023/04/21 02:34:32;;;;;;;;;;;18.10;64.80;;;;;;4935031;29;1350;-73
2023/04/21 02:36:58;;;;;;;;;;;18.10;64.80;;;;;;4935842;29;1043;-73
2023/04/21 02:39:24;;;;;;;;;;;18.10;64.80;;;;;;4935579;28;867;-73
2023/04/21 02:41:49;;;;;;;;;;;18.10;64.80;;;;;;4949725;29;1906;-73
2023/04/21 02:44:15;;;;;;;;;;;18.10;64.80;;;;;;4935042;29;1736;-73
2023/04/21 02:46:40;;;;;;;;;;;18.10;64.80;;;;;;4935096;29;832;-73
2023/04/21 02:49:06;;;;;;;;;;;18.10;64.80;;;;;;4934987;29;817;-73
2023/04/21 02:51:32;;;;;;;;;;;18.00;64.80;;;;;;4934844;29;871;-73
2023/04/21 02:53:57;;;;;;;;;;;18.10;64.90;;;;;;4934873;29;1277;-74
2023/04/21 02:56:23;;;;;;;;;;;18.10;64.90;;;;;;4934856;29;907;-73
2023/04/21 02:58:48;;;;;;;;;;;18.10;64.90;;;;;;4935084;29;1285;-73
2023/04/21 03:01:14;;;;;;;;;;;18.10;65.70;;;;;;4934515;29;1956;-73
2023/04/21 03:03:39;;;;;;;;;;;18.00;64.80;;;;;;4949418;29;1258;-74
2023/04/21 03:06:05;;;;;;;;;;;18.00;64.90;;;;;;4934579;29;862;-73
2023/04/21 03:08:30;;;;;;;;;;;18.10;65.00;;;;;;4933226;29;896;-73
2023/04/21 03:10:56;;;;;;;;;;;18.00;64.90;;;;;;4933478;29;971;-73
2023/04/21 03:13:22;;;;;;;;;;;18.00;64.90;;;;;;4949170;29;1273;-73
2023/04/21 03:15:47;;;;;;;;;;;18.00;64.90;;;;;;4933241;29;1188;-76
2023/04/21 03:18:13;;;;;;;;;;;18.00;64.90;;;;;;4934294;29;845;-73
2023/04/21 03:20:38;;;;;;;;;;;18.00;64.90;;;;;;4933189;29;1684;-73
2023/04/21 03:23:04;;;;;;;;;;;18.00;64.90;;;;;;4933789;29;1903;-73
2023/04/21 03:25:29;;;;;;;;;;;18.00;64.90;;;;;;4932996;29;920;-73
2023/04/21 03:27:55;;;;;;;;;;;18.00;64.90;;;;;;4934435;29;912;-73
2023/04/21 03:30:21;;;;;;;;;;;18.00;64.90;;;;;;4948850;29;1045;-73
2023/04/21 03:32:46;;;;;;;;;;;18.00;65.00;;;;;;4948968;29;1264;-73
2023/04/21 03:35:11;;;;;;;;;;;18.00;65.00;;;;;;4934813;29;1095;-73
2023/04/21 03:37:37;;;;;;;;;;;18.00;65.00;;;;;;4934366;29;1042;-73
2023/04/21 03:40:04;;;;;;;;;;;18.00;65.00;;;;;;4934342;29;832;-73
2023/04/21 03:42:30;;;;;;;;;;;18.00;65.00;;;;;;4933121;29;1919;-73
2023/04/21 03:44:56;;;;;;;;;;;18.00;65.00;;;;;;4933947;29;1308;-73
2023/04/21 03:47:21;;;;;;;;;;;18.00;65.00;;;;;;4933830;29;1303;-73
2023/04/21 03:49:47;;;;;;;;;;;18.00;65.00;;;;;;4934171;29;1077;-73
2023/04/21 03:52:12;;;;;;;;;;;18.00;65.00;;;;;;4933524;29;1053;-74
2023/04/21 03:54:37;;;;;;;;;;;18.00;65.00;;;;;;4933690;29;1229;-73
2023/04/21 03:57:03;;;;;;;;;;;18.00;65.10;;;;;;4934091;29;919;-73
2023/04/21 03:59:28;;;;;;;;;;;18.00;65.10;;;;;;4948141;29;1023;-73
2023/04/21 04:01:54;;;;;;;;;;;18.00;65.10;;;;;;4933884;29;1902;-73
2023/04/21 04:04:19;;;;;;;;;;;18.00;65.10;;;;;;4933615;29;1278;-74
2023/04/21 04:06:45;;;;;;;;;;;18.00;65.10;;;;;;4948871;29;1733;-73
2023/04/21 04:09:11;;;;;;;;;;;18.00;65.10;;;;;;4933419;29;892;-73
2023/04/21 04:11:36;;;;;;;;;;;18.00;65.00;;;;;;4932883;29;909;-73
2023/04/21 04:14:02;;;;;;;;;;;18.00;64.90;;;;;;4932752;29;1275;-75
2023/04/21 04:16:27;;;;;;;;;;;18.00;64.90;;;;;;4932816;29;903;-73
2023/04/21 04:18:53;;;;;;;;;;;18.10;64.90;;;;;;4933053;29;856;-72
2023/04/21 04:21:18;;;;;;;;;;;18.10;64.80;;;;;;4947737;28;1907;-74
2023/04/21 04:23:44;;;;;;;;;;;18.10;64.70;;;;;;4947459;28;1502;-73
2023/04/21 04:26:10;;;;;;;;;;;18.10;64.50;;;;;;4933441;29;843;-73
2023/04/21 04:28:35;;;;;;;;;;;18.20;64.50;;;;;;4934254;29;857;-76
2023/04/21 04:31:01;;;;;;;;;;;18.20;64.40;;;;;;4932840;29;1308;-73
2023/04/21 04:33:27;;;;;;;;;;;18.20;64.30;;;;;;4932627;29;1355;-73
2023/04/21 04:35:53;;;;;;;;;;;18.30;64.20;;;;;;4932682;29;955;-73
2023/04/21 04:38:21;;;;;;;;;;;18.30;64.10;;;;;;4932820;28;1187;-73
2023/04/21 04:41:00;;;;;;;;;;;18.30;64.00;;;;;;4933001;29;1019;-73
2023/04/21 04:43:26;;;;;;;;;;;18.30;63.90;;;;;;4932286;29;1899;-73
2023/04/21 04:45:52;;;;;;;;;;;18.40;63.90;;;;;;4932794;29;1023;-73
2023/04/21 04:48:17;;;;;;;;;;;18.40;63.70;;;;;;4950533;29;866;-73
2023/04/21 04:50:43;;;;;;;;;;;18.50;63.70;;;;;;4935553;29;939;-73
2023/04/21 04:53:09;;;;;;;;;;;18.60;63.50;;;;;;4934916;29;1288;-73
2023/04/21 04:55:34;;;;;;;;;;;18.70;63.40;;;;;;4936467;29;943;-73
2023/04/21 04:58:00;;;;;;;;;;;18.80;63.20;;;;;;4950869;29;1213;-73
2023/04/21 05:00:27;;;;;;;;;;;18.90;63.00;;;;;;4936138;29;864;-73
2023/04/21 05:02:53;;;;;;;;;;;19.00;62.70;;;;;;4934611;29;1907;-73
2023/04/21 05:05:20;;;;;;;;;;;19.20;62.40;;;;;;4935997;29;1025;-73
2023/04/21 05:07:46;;;;;;;;;;;19.20;62.10;;;;;;4934610;29;849;-73
2023/04/21 05:10:11;;;;;;;;;;;19.40;61.90;;;;;;4936396;29;1054;-73
2023/04/21 05:12:37;;;;;;;;;;;19.40;61.50;;;;;;4935278;29;825;-73
2023/04/21 05:15:03;;;;;;;;;;;19.50;61.20;;;;;;4935867;29;1381;-73
2023/04/21 05:17:29;;;;;;;;;;;19.60;61.00;;;;;;4936056;29;888;-73
2023/04/21 05:19:55;;;;;;;;;;;19.70;60.80;;;;;;4934710;29;860;-73
2023/04/21 05:22:20;;;;;;;;;;;19.80;60.50;;;;;;4935854;29;1976;-73
2023/04/21 05:24:46;;;;;;;;;;;19.90;60.30;;;;;;4933622;29;1361;-73
2023/04/21 05:27:12;;;;;;;;;;;19.90;60.10;;;;;;4934435;29;863;-73
2023/04/21 05:29:37;;;;;;;;;;;19.90;59.90;;;;;;4935849;29;1410;-73
2023/04/21 05:32:03;;;;;;;;;;;20.00;59.80;;;;;;4935624;29;1195;-74
2023/04/21 05:34:28;;;;;;;;;;;20.00;59.70;;;;;;4935381;29;1362;-73
2023/04/21 05:36:54;;;;;;;;;;;20.10;59.60;;;;;;4935806;29;897;-73
2023/04/21 05:39:19;;;;;;;;;;;20.10;59.50;;;;;;4934399;29;797;-73
2023/04/21 05:41:45;;;;;;;;;;;20.20;59.40;;;;;;4935400;29;1907;-73
2023/04/21 05:44:10;;;;;;;;;;;20.20;59.30;;;;;;4950084;29;1328;-73
2023/04/21 05:46:36;;;;;;;;;;;20.20;59.30;;;;;;4935537;29;1039;-73
2023/04/21 05:49:01;;;;;;;;;;;20.20;59.20;;;;;;4950047;29;1162;-73
2023/04/21 05:51:27;;;;;;;;;;;20.30;59.20;;;;;;4949941;29;1268;-73
2023/04/21 05:53:52;;;;;;;;;;;20.30;59.20;;;;;;4935070;29;1261;-74
2023/04/21 05:56:17;;;;;;;;;;;20.30;59.10;;;;;;4934310;29;873;-73
2023/04/21 05:58:43;;;;;;;;;;;20.30;59.10;;;;;;4935084;29;1078;-73
2023/04/21 06:01:08;;;;;;;;;;;20.40;59.10;;;;;;4935271;29;830;-73
2023/04/21 06:03:34;;;;;;;;;;;20.40;59.10;;;;;;4934817;29;1973;-73
2023/04/21 06:06:00;;;;;;;;;;;20.40;59.00;;;;;;4933848;29;863;-73
2023/04/21 06:08:26;;;;;;;;;;;20.40;59.00;;;;;;4935247;29;985;-73
2023/04/21 06:10:51;;;;;;;;;;;20.40;59.00;;;;;;4935097;29;884;-74
2023/04/21 06:13:17;;;;;;;;;;;20.40;59.00;;;;;;4932236;29;2016;-73
2023/04/21 06:15:42;;;;;;;;;;;20.50;59.10;;;;;;4936155;29;1549;-73
2023/04/21 06:18:08;;;;;;;;;;;20.50;59.00;;;;;;4937187;29;1513;-74
2023/04/21 06:20:33;;;;;;;;;;;20.50;58.90;;;;;;4934369;29;931;-74
2023/04/21 06:22:58;;;;;;;;;;;20.50;59.00;;;;;;4933768;29;1907;-75
2023/04/21 06:25:24;;;;;;;;;;;20.50;59.00;;;;;;4934615;29;915;-74
2023/04/21 06:27:49;;;;;;;;;;;20.50;58.90;;;;;;4948521;29;884;-72
2023/04/21 06:30:16;;;;;;;;;;;20.50;59.00;;;;;;4933969;29;1319;-72
2023/04/21 06:32:41;;;;;;;;;;;20.50;58.90;;;;;;4948154;29;860;-72
2023/04/21 06:35:07;;;;;;;;;;;20.60;58.90;;;;;;4933914;29;1484;-73
2023/04/21 06:37:33;;;;;;;;;;;20.50;58.90;;;;;;4933491;29;805;-73
2023/04/21 06:39:58;;;;;;;;;;;20.60;58.90;;;;;;4934068;29;1717;-73
2023/04/21 06:42:24;;;;;;;;;;;20.50;58.90;;;;;;4933548;29;1968;-73
2023/04/21 06:44:49;;;;;;;;;;;20.50;58.90;;;;;;4948324;29;1287;-74
2023/04/21 06:47:15;;;;;;;;;;;20.60;58.90;;;;;;4933925;29;819;-70
2023/04/21 06:49:41;;;;;;;;;;;20.50;58.90;;;;;;4934595;29;903;-73
2023/04/21 06:52:06;;;;;;;;;;;20.50;58.90;;;;;;4936695;29;1078;-73
2023/04/21 06:54:32;;;;;;;;;;;20.60;58.90;;;;;;4933891;29;1272;-74
2023/04/21 06:56:57;;;;;;;;;;;20.60;58.90;;;;;;4935407;29;880;-74
2023/04/21 06:59:23;;;;;;;;;;;20.60;58.90;;;;;;4935479;29;753;-75
2023/04/21 07:01:51;;;;;;;;;;;20.60;58.90;;;;;;4935410;29;1958;-75
2023/04/21 07:04:19;;;;;;;;;;;20.60;58.90;;;;;;4934964;29;1260;-74
2023/04/21 07:06:45;;;;;;;;;;;20.60;58.90;;;;;;4935301;29;922;-75
2023/04/21 07:09:10;;;;;;;;;;;20.60;58.90;;;;;;4949720;28;878;-75
2023/04/21 07:11:36;;;;;;;;;;;20.60;58.90;;;;;;4935815;29;860;-74
2023/04/21 07:14:01;;;;;;;;;;;20.60;58.90;;;;;;4935415;29;1798;-75
2023/04/21 07:16:27;;;;;;;;;;;20.60;59.00;;;;;;4935926;29;924;-75
2023/04/21 07:18:53;;;;;;;;;;;20.60;59.00;;;;;;4934683;29;817;-75
2023/04/21 07:21:18;;;;;;;;;;;20.60;59.10;;;;;;4950519;29;1879;-75
2023/04/21 07:23:44;;;;;;;;;;;20.60;59.20;;;;;;4948962;28;1348;-75
2023/04/21 07:26:09;;;;;;;;;;;20.60;59.30;;;;;;4934479;29;899;-76
2023/04/21 07:28:35;;;;;;;;;;;20.60;59.70;;;;;;4932941;29;837;-76
2023/04/21 07:31:01;;;;;;;;;;;20.50;60.00;;;;;;4934995;29;1325;-74
2023/04/21 07:33:26;;;;;;;;;;;20.60;60.10;;;;;;4949079;29;1349;-74
2023/04/21 07:35:52;;;;;;;;;;;20.60;60.50;;;;;;4933671;29;987;-75
2023/04/21 07:38:17;;;;;;;;;;;20.50;61.10;;;;;;4933929;29;892;-75
2023/04/21 07:40:43;;;;;;;;;;;20.50;61.10;;;;;;4935119;29;842;-75
2023/04/21 07:43:08;;;;;;;;;;;20.50;61.40;;;;;;4950172;29;1972;-76
2023/04/21 07:45:34;;;;;;;;;;;20.50;62.20;;;;;;4953307;28;1478;-75
2023/04/21 07:47:59;;;;;;;;;;;20.50;62.20;;;;;;4934973;29;1401;-75
2023/04/21 07:50:25;;;;;;;;;;;20.50;62.30;;;;;;4936666;29;1327;-75
2023/04/21 07:52:50;;;;;;;;;;;20.50;62.40;;;;;;4941821;29;1380;-74
2023/04/21 07:55:16;;;;;;;;;;;20.50;62.90;;;;;;4943211;29;854;-75
2023/04/21 07:57:41;;;;;;;;;;;20.50;62.20;;;;;;4942913;29;1047;-75
2023/04/21 08:00:08;;;;;;;;;;;20.40;62.10;;;;;;4963482;29;875;-74
2023/04/21 08:02:34;;;;;;;;;;;20.40;62.20;;;;;;4949463;29;1883;-74
2023/04/21 08:04:59;;;;;;;;;;;20.40;62.30;;;;;;4964305;29;1166;-75
2023/04/21 08:07:25;;;;;;;;;;;20.30;62.40;;;;;;4957493;29;1153;-74
2023/04/21 08:09:51;;;;;;;;;;;20.30;62.70;;;;;;4960207;29;836;-74
2023/04/21 08:12:17;;;;;;;;;;;20.30;63.00;;;;;;4938000;29;939;-74
2023/04/21 08:14:42;;;;;;;;;;;20.30;63.40;;;;;;4938852;29;1289;-74
2023/04/21 08:17:08;;;;;;;;;;;20.30;63.80;;;;;;4953385;29;812;-75
2023/04/21 08:19:34;;;;;;;;;;;20.20;63.90;;;;;;4927946;29;1343;-76
2023/04/21 08:21:59;;;;;;;;;;;20.20;64.30;;;;;;4927481;29;1969;-74
2023/04/21 08:24:25;;;;;;;;;;;20.20;64.80;;;;;;4936130;29;1292;-74
2023/04/21 08:26:54;;;;;;;;;;;20.20;65.10;;;;;;4937973;29;808;-74
2023/04/21 08:29:20;;;;;;;;;;;20.20;65.70;;;;;;4953140;29;1300;-75
2023/04/21 08:31:45;;;;;;;;;;;20.20;66.40;;;;;;4953167;29;907;-76
2023/04/21 08:34:11;;;;;;;;;;;20.20;66.50;;;;;;4953474;29;1352;-75
2023/04/21 08:36:36;;;;;;;;;;;20.20;68.20;;;;;;4938392;29;856;-74
2023/04/21 08:39:02;;;;;;;;;;;20.20;68.20;;;;;;4935180;29;1307;-74
2023/04/21 08:41:27;;;;;;;;;;;20.10;68.20;;;;;;4951124;29;1968;-74
2023/04/21 08:43:53;;;;;;;;;;;20.10;68.10;;;;;;4933949;29;1981;-74
2023/04/21 08:46:18;;;;;;;;;;;20.10;67.80;;;;;;4950483;29;888;-74
2023/04/21 08:48:44;;;;;;;;;;;20.10;67.80;;;;;;4934354;29;900;-74
2023/04/21 08:51:09;;;;;;;;;;;20.10;67.70;;;;;;4934513;29;867;-74
2023/04/21 08:53:36;;;;;;;;;;;20.00;67.70;;;;;;4935285;29;1297;-75
2023/04/21 08:56:01;;;;;;;;;;;20.00;67.80;;;;;;4950368;29;862;-74
2023/04/21 08:58:26;;;;;;;;;;;20.00;67.90;;;;;;4935644;29;1061;-73
2023/04/21 09:00:52;;;;;;;;;;;20.00;67.80;;;;;;4950519;29;878;-73
2023/04/21 09:03:22;;;;;;;;;;;20.00;67.70;;;;;;4935081;29;1964;-75
2023/04/21 09:06:01;;;;;;;;;;;20.00;67.70;;;;;;4934187;29;872;-75
2023/04/21 09:08:28;;;;;;;;;;;20.00;67.70;;;;;;4934189;29;850;-75
2023/04/21 09:10:54;;;;;;;;;;;20.00;67.60;;;;;;4934643;29;911;-75
2023/04/21 09:13:19;;;;;;;;;;;20.00;67.80;;;;;;4934959;29;1281;-74
2023/04/21 09:15:49;;;;;;;;;;;20.00;67.70;;;;;;4950190;29;857;-75
2023/04/21 09:18:21;;;;;;;;;;;20.00;68.00;;;;;;4933997;29;1322;-75
2023/04/21 09:20:47;;;;;;;;;;;19.90;68.00;;;;;;4950214;29;871;-74
2023/04/21 09:23:13;;;;;;;;;;;19.90;68.20;;;;;;4934117;29;1910;-75
2023/04/21 09:25:39;;;;;;;;;;;19.90;68.30;;;;;;4933972;29;1181;-75
2023/04/21 09:28:08;;;;;;;;;;;19.90;68.50;;;;;;4934523;29;896;-74
2023/04/21 09:30:34;;;;;;;;;;;19.90;69.30;;;;;;4949662;29;1390;-75
2023/04/21 09:32:59;;;;;;;;;;;19.90;68.70;;;;;;4932683;29;1305;-74
2023/04/21 09:35:28;;;;;;;;;;;19.90;69.00;;;;;;4935126;29;1389;-75
2023/04/21 09:37:54;;;;;;;;;;;19.90;69.50;;;;;;4934768;29;873;-74
2023/04/21 09:40:19;;;;;;;;;;;19.90;69.50;;;;;;4935017;29;875;-75
2023/04/21 09:42:44;;;;;;;;;;;19.90;69.60;;;;;;4936603;29;1906;-75
2023/04/21 09:45:10;;;;;;;;;;;19.80;69.80;;;;;;4937726;29;880;-75
2023/04/21 09:47:38;;;;;;;;;;;19.90;69.80;;;;;;4952659;29;829;-74
2023/04/21 09:50:04;;;;;;;;;;;19.90;69.80;;;;;;4936956;28;1114;-75
2023/04/21 09:52:30;;;;;;;;;;;19.80;69.80;;;;;;4936867;29;958;-75
2023/04/21 09:55:04;;;;;;;;;;;19.80;69.70;;;;;;4952378;29;1278;-75
2023/04/21 09:57:30;;;;;;;;;;;19.80;69.60;;;;;;4936756;29;1890;-75
2023/04/21 09:59:59;;;;;;;;;;;19.80;69.70;;;;;;4952285;28;1409;-75
2023/04/21 10:02:28;;;;;;;;;;;19.80;69.70;;;;;;4952281;29;1970;-75
2023/04/21 10:04:53;;;;;;;;;;;19.80;69.70;;;;;;4937353;29;1330;-75
2023/04/21 10:07:18;;;;;;;;;;;19.80;69.60;;;;;;4951852;29;1429;-75
2023/04/21 10:09:45;;;;;;;;;;;19.80;69.60;;;;;;4937497;29;950;-75
2023/04/21 10:12:10;;;;;;;;;;;19.70;69.50;;;;;;4935545;29;817;-74
2023/04/21 10:14:36;;;;;;;;;;;19.70;69.40;;;;;;4936889;29;1235;-76
2023/04/21 10:17:05;;;;;;;;;;;19.80;69.30;;;;;;4937374;29;816;-75
2023/04/21 10:19:38;;;;;;;;;;;19.80;69.20;;;;;;4936558;29;834;-73
2023/04/21 10:22:07;;;;;;;;;;;19.80;69.10;;;;;;4928186;29;1899;-70
2023/04/21 10:24:39;;;;;;;;;;;19.80;68.90;;;;;;4941033;29;1401;-70
2023/04/21 10:27:06;;;;;;;;;;;19.80;68.90;;;;;;4948683;29;1407;-72
2023/04/21 10:29:32;;;;;;;;;;;19.80;68.70;;;;;;4934549;29;1301;-72
2023/04/21 10:31:57;;;;;;;;;;;19.80;68.70;;;;;;4932938;29;912;-71
2023/04/21 10:34:36;;;;;;;;;;;19.80;68.60;;;;;;4934001;29;1362;-71
2023/04/21 10:37:05;;;;;;;;;;;19.80;68.50;;;;;;4948622;29;849;-71
2023/04/21 10:39:49;;;;;;;;;;;19.80;68.50;;;;;;4934061;29;891;-71
2023/04/21 10:42:15;;;;;;;;;;;19.80;68.50;;;;;;4933286;29;1899;-71
2023/04/21 10:44:43;;;;;;;;;;;19.80;68.50;;;;;;4933792;29;1334;-72
2023/04/21 10:47:09;;;;;;;;;;;19.80;68.60;;;;;;4947640;29;827;-72
2023/04/21 10:49:38;;;;;;;;;;;19.80;68.60;;;;;;4951161;29;787;-73
2023/04/21 10:52:07;;;;;;;;;;;19.80;68.70;;;;;;4933373;29;834;-70
2023/04/21 10:54:44;;;;;;;;;;;19.80;68.70;;;;;;4947323;29;1245;-71
2023/04/21 10:57:10;;;;;;;;;;;19.80;68.80;;;;;;4931256;29;5322;-72
2023/04/21 10:59:36;;;;;;;;;;;19.80;69.80;;;;;;4948267;29;1190;-71
2023/04/21 11:02:02;;;;;;;;;;;19.80;69.00;;;;;;4932282;29;1947;-71
2023/04/21 11:04:27;;;;;;;;;;;19.80;69.20;;;;;;4933484;29;1405;-71
2023/04/21 11:07:08;;;;;;;;;;;19.80;69.30;;;;;;4934015;29;841;-72
2023/04/21 11:09:34;;;;;;;;;;;19.70;69.30;;;;;;4933219;29;924;-72
2023/04/21 11:12:01;;;;;;;;;;;19.80;69.80;;;;;;4933453;29;847;-75
2023/04/21 11:14:27;;;;;;;;;;;19.80;69.80;;;;;;4950069;29;1359;-74
2023/04/21 11:16:52;;;;;;;;;;;19.80;69.80;;;;;;4935919;29;927;-74
2023/04/21 11:19:23;;;;;;;;;;;19.80;69.70;;;;;;4935820;29;817;-74
2023/04/21 11:21:48;;;;;;;;;;;19.80;69.80;;;;;;4950292;29;1972;-74
2023/04/21 11:24:14;;;;;;;;;;;19.70;69.70;;;;;;4935558;29;1242;-74
2023/04/21 11:26:41;;;;;;;;;;;19.80;69.80;;;;;;4935950;29;1016;-75
2023/04/21 11:29:07;;;;;;;;;;;19.80;69.90;;;;;;4931255;29;869;-74
2023/04/21 11:31:33;;;;;;;;;;;19.70;69.80;;;;;;4934989;29;908;-74
2023/04/21 11:33:59;;;;;;;;;;;19.70;69.90;;;;;;4936164;29;1334;-74
2023/04/21 11:36:24;;;;;;;;;;;19.70;69.70;;;;;;4937782;29;877;-72
2023/04/21 11:38:50;;;;;;;;;;;19.70;70.10;;;;;;4935564;29;1007;-74
2023/04/21 11:41:22;;;;;;;;;;;19.70;70.20;;;;;;4935624;29;1040;-73
2023/04/21 11:43:47;;;;;;;;;;;19.70;70.20;;;;;;4935209;29;1890;-74
2023/04/21 11:46:17;;;;;;;;;;;19.70;70.20;;;;;;4950225;29;816;-74
2023/04/21 11:48:43;;;;;;;;;;;19.60;70.20;;;;;;4949895;29;878;-74
2023/04/21 11:51:15;;;;;;;;;;;19.60;70.20;;;;;;4949397;29;958;-72
2023/04/21 11:53:41;;;;;;;;;;;19.60;70.20;;;;;;4932201;29;1280;-72
2023/04/21 11:56:07;;;;;;;;;;;19.60;70.20;;;;;;4933177;29;1194;-72
2023/04/21 11:58:33;;;;;;;;;;;19.60;70.10;;;;;;4932195;29;847;-72
2023/04/21 12:00:58;;;;;;;;;;;19.60;70.00;;;;;;4932746;29;1202;-71
2023/04/21 12:03:25;;;;;;;;;;;19.60;70.00;;;;;;4947145;29;1957;-72
2023/04/21 12:05:54;;;;;;;;;;;19.60;70.30;;;;;;4933204;29;937;-72
2023/04/21 12:08:20;;;;;;;;;;;19.60;68.10;;;;;;4932692;29;935;-71
2023/04/21 12:10:45;;;;;;;;;;;19.50;66.00;;;;;;4932807;29;1363;-71
2023/04/21 12:13:11;;;;;;;;;;;19.50;65.30;;;;;;4931269;29;1351;-71
2023/04/21 12:15:36;;;;;;;;;;;19.50;64.70;;;;;;4949453;28;1425;-71
2023/04/21 12:18:02;;;;;;;;;;;19.50;64.40;;;;;;4932716;29;1353;-71
2023/04/21 12:20:27;;;;;;;;;;;19.40;64.20;;;;;;4949218;28;1346;-72
2023/04/21 12:23:43;;;;;;;;;;;;;;;;;;;;;
2023/04/21 12:26:32;;;;;;;;;;;19.40;62.70;;;;;;4945018;29;1987;-72
2023/04/21 12:29:00;;;;;;;;;;;19.40;63.30;;;;;;4924387;29;1321;-72
2023/04/21 12:31:28;;;;;;;;;;;19.40;63.10;;;;;;4925659;29;1296;-71
2023/04/21 12:33:56;;;;;;;;;;;19.30;62.90;;;;;;4922898;29;1510;-74
2023/04/21 12:36:22;;;;;;;;;;;19.30;62.80;;;;;;4927081;29;1439;-72
2023/04/21 12:38:56;;;;;;;;;;;19.30;63.80;;;;;;4932598;29;1442;-72
2023/04/21 12:41:22;;;;;;;;;;;19.30;63.00;;;;;;4923047;29;1495;-73
2023/04/21 12:43:48;;;;;;;;;;;19.30;62.90;;;;;;4932307;29;1960;-72
2023/04/21 12:46:13;;;;;;;;;;;19.20;62.60;;;;;;4932549;29;1545;-71
2023/04/21 12:48:39;;;;;;;;;;;19.20;61.80;;;;;;4932285;29;1266;-70
2023/04/21 12:51:04;;;;;;;;;;;19.20;61.70;;;;;;4932356;29;1277;-70
2023/04/21 12:53:30;;;;;;;;;;;19.20;61.60;;;;;;4931780;29;1378;-72
2023/04/21 12:55:56;;;;;;;;;;;19.20;61.60;;;;;;4932632;29;1031;-72
2023/04/21 12:58:21;;;;;;;;;;;19.20;62.00;;;;;;4932422;29;857;-71
2023/04/21 13:00:46;;;;;;;;;;;19.20;61.90;;;;;;4931496;29;885;-72
2023/04/21 13:03:12;;;;;;;;;;;19.20;61.80;;;;;;4922437;29;1966;-73
2023/04/21 13:05:38;;;;;;;;;;;19.20;61.70;;;;;;4932255;29;1163;-74
2023/04/21 13:08:03;;;;;;;;;;;19.20;61.60;;;;;;4932361;29;897;-74
2023/04/21 13:10:29;;;;;;;;;;;19.10;60.60;;;;;;4936081;29;819;-74
2023/04/21 13:12:54;;;;;;;;;;;19.10;59.50;;;;;;4935648;29;1369;-73
2023/04/21 13:15:20;;;;;;;;;;;19.10;60.20;;;;;;4936250;29;1205;-72
2023/04/21 13:17:45;;;;;;;;;;;19.10;61.50;;;;;;4935882;29;819;-70
2023/04/21 13:20:11;;;;;;;;;;;19.00;60.40;;;;;;4936094;29;935;-71
2023/04/21 13:22:36;;;;;;;;;;;19.00;60.70;;;;;;4935865;29;1902;-71
2023/04/21 13:25:03;;;;;;;;;;;19.10;60.40;;;;;;4936927;29;1324;-72
2023/04/21 13:27:28;;;;;;;;;;;19.10;60.00;;;;;;4937161;29;879;-71
2023/04/21 13:29:54;;;;;;;;;;;19.00;57.80;;;;;;4935720;29;1365;-71
2023/04/21 13:32:20;;;;;;;;;;;19.10;56.50;;;;;;4935712;29;870;-71
2023/04/21 13:34:46;;;;;;;;;;;19.10;56.20;;;;;;4935707;29;1434;-72
2023/04/21 13:37:14;;;;;;;;;;;19.10;54.90;;;;;;4935507;29;874;-72
2023/04/21 13:39:40;;;;;;;;;;;19.10;56.10;;;;;;4935703;29;789;-71
2023/04/21 13:42:06;;;;;;;;;;;19.10;57.20;;;;;;4935325;29;1907;-71
2023/04/21 13:44:31;;;;;;;;;;;19.10;57.10;;;;;;4935209;29;1229;-70
2023/04/21 13:46:57;;;;;;;;;;;19.00;53.70;;;;;;4935325;29;867;-72
2023/04/21 13:49:22;;;;;;;;;;;19.10;51.40;;;;;;4935637;29;858;-72
2023/04/21 13:51:48;;;;;;;;;;;19.10;50.20;;;;;;4935447;29;1007;-72
2023/04/21 13:54:13;;;;;;;;;;;19.10;49.10;;;;;;4935112;29;1261;-71
2023/04/21 13:56:39;;;;;;;;;;;19.10;50.00;;;;;;4935471;29;1069;-76
2023/04/21 13:59:05;;;;;;;;;;;19.10;50.30;;;;;;4933896;29;1411;-73
2023/04/21 14:01:30;;;;;;;;;;;19.10;52.10;;;;;;4934792;29;853;-74
2023/04/21 14:03:56;;;;;;;;;;;19.10;54.00;;;;;;4934467;29;1996;-73
2023/04/21 14:06:21;;;;;;;;;;;19.00;55.30;;;;;;4934932;29;950;-73
2023/04/21 14:08:47;;;;;;;;;;;19.00;55.30;;;;;;4934956;29;1098;-73
2023/04/21 14:11:12;;;;;;;;;;;18.90;55.40;;;;;;4949318;29;1339;-73
2023/04/21 14:13:38;;;;;;;;;;;18.90;55.80;;;;;;4949197;29;1375;-74
2023/04/21 14:16:03;;;;;;;;;;;18.90;56.40;;;;;;4934088;29;871;-74
2023/04/21 14:18:29;;;;;;;;;;;18.90;56.90;;;;;;4934438;29;869;-74
2023/04/21 14:20:54;;;;;;;;;;;18.90;57.20;;;;;;4949680;29;872;-74
2023/04/21 14:23:20;;;;;;;;;;;18.80;57.80;;;;;;4934307;29;1922;-75
2023/04/21 14:25:45;;;;;;;;;;;18.80;58.00;;;;;;4934906;29;1015;-75
2023/04/21 14:28:10;;;;;;;;;;;18.80;58.20;;;;;;4934592;29;864;-73
2023/04/21 14:30:36;;;;;;;;;;;18.80;58.40;;;;;;4934742;29;1336;-73